sensor_id;sensor_type;location;lat;lon;timestamp;P1;durP1;ratioP1;P2;durP2;ratioP2
6878;SDS011;3478;51.462;7.338;2023-06-14T00:00:23;5.93;;;5.43;;
6878;SDS011;3478;51.462;7.338;2023-06-14T00:05:25;9.63;;;6.80;;
6878;SDS011;3478;51.462;7.338;2023-06-14T00:10:29;6.80;;;6.20;;
6878;SDS011;3478;51.462;7.338;2023-06-14T00:15:35;6.50;;;6.10;;
6878;SDS011;3478;51.462;7.338;2023-06-14T00:20:37;11.63;;;5.87;;
6878;SDS011;3478;51.462;7.338;2023-06-14T00:25:39;7.33;;;6.63;;
6878;SDS011;3478;51.462;7.338;2023-06-14T00:30:43;6.10;;;5.50;;
6878;SDS011;3478;51.462;7.338;2023-06-14T00:35:46;6.17;;;5.67;;
6878;SDS011;3478;51.462;7.338;2023-06-14T00:40:48;6.90;;;6.23;;
6878;SDS011;3478;51.462;7.338;2023-06-14T00:45:52;6.53;;;6.03;;
6878;SDS011;3478;51.462;7.338;2023-06-14T00:50:54;6.10;;;5.50;;
6878;SDS011;3478;51.462;7.338;2023-06-14T00:55:56;6.33;;;5.40;;
6878;SDS011;3478;51.462;7.338;2023-06-14T01:00:59;7.13;;;6.37;;
6878;SDS011;3478;51.462;7.338;2023-06-14T01:06:05;5.77;;;5.20;;
6878;SDS011;3478;51.462;7.338;2023-06-14T01:11:18;6.20;;;5.60;;
6878;SDS011;3478;51.462;7.338;2023-06-14T01:16:28;8.13;;;7.43;;
6878;SDS011;3478;51.462;7.338;2023-06-14T01:21:32;6.17;;;5.60;;
6878;SDS011;3478;51.462;7.338;2023-06-14T01:26:43;6.27;;;5.97;;
6878;SDS011;3478;51.462;7.338;2023-06-14T01:31:45;5.77;;;5.23;;
6878;SDS011;3478;51.462;7.338;2023-06-14T01:36:49;5.50;;;5.10;;
6878;SDS011;3478;51.462;7.338;2023-06-14T01:41:53;5.80;;;5.30;;
6878;SDS011;3478;51.462;7.338;2023-06-14T01:46:55;7.27;;;4.90;;
6878;SDS011;3478;51.462;7.338;2023-06-14T01:51:58;5.90;;;5.40;;
6878;SDS011;3478;51.462;7.338;2023-06-14T01:57:01;6.47;;;5.70;;
6878;SDS011;3478;51.462;7.338;2023-06-14T02:02:04;5.80;;;5.27;;
6878;SDS011;3478;51.462;7.338;2023-06-14T02:07:06;6.10;;;5.67;;
6878;SDS011;3478;51.462;7.338;2023-06-14T02:12:10;8.73;;;5.60;;
6878;SDS011;3478;51.462;7.338;2023-06-14T02:17:12;6.33;;;5.83;;
6878;SDS011;3478;51.462;7.338;2023-06-14T02:22:14;6.83;;;5.53;;
6878;SDS011;3478;51.462;7.338;2023-06-14T02:27:18;5.33;;;4.93;;
6878;SDS011;3478;51.462;7.338;2023-06-14T02:32:20;8.97;;;6.80;;
6878;SDS011;3478;51.462;7.338;2023-06-14T02:37:22;5.97;;;5.40;;
6878;SDS011;3478;51.462;7.338;2023-06-14T02:42:25;4.93;;;4.57;;
6878;SDS011;3478;51.462;7.338;2023-06-14T02:47:27;6.00;;;5.50;;
6878;SDS011;3478;51.462;7.338;2023-06-14T02:52:33;7.40;;;5.00;;
6878;SDS011;3478;51.462;7.338;2023-06-14T02:57:36;4.23;;;4.03;;
6878;SDS011;3478;51.462;7.338;2023-06-14T03:02:38;4.53;;;4.13;;
6878;SDS011;3478;51.462;7.338;2023-06-14T03:07:42;5.53;;;3.73;;
6878;SDS011;3478;51.462;7.338;2023-06-14T03:12:46;4.10;;;3.70;;
6878;SDS011;3478;51.462;7.338;2023-06-14T03:17:48;4.87;;;4.33;;
6878;SDS011;3478;51.462;7.338;2023-06-14T03:22:50;3.77;;;3.37;;
6878;SDS011;3478;51.462;7.338;2023-06-14T03:27:55;6.57;;;4.83;;
6878;SDS011;3478;51.462;7.338;2023-06-14T03:32:57;5.50;;;4.07;;
6878;SDS011;3478;51.462;7.338;2023-06-14T03:38:01;4.33;;;3.90;;
6878;SDS011;3478;51.462;7.338;2023-06-14T03:43:05;6.63;;;3.87;;
6878;SDS011;3478;51.462;7.338;2023-06-14T03:48:08;3.80;;;3.60;;
6878;SDS011;3478;51.462;7.338;2023-06-14T03:53:10;3.77;;;3.50;;
6878;SDS011;3478;51.462;7.338;2023-06-14T03:58:14;3.30;;;3.10;;
6878;SDS011;3478;51.462;7.338;2023-06-14T04:03:16;4.20;;;3.80;;
6878;SDS011;3478;51.462;7.338;2023-06-14T04:08:19;4.77;;;3.87;;
6878;SDS011;3478;51.462;7.338;2023-06-14T04:13:23;3.53;;;3.20;;
6878;SDS011;3478;51.462;7.338;2023-06-14T04:18:25;5.67;;;4.10;;
6878;SDS011;3478;51.462;7.338;2023-06-14T04:23:27;4.80;;;4.40;;
6878;SDS011;3478;51.462;7.338;2023-06-14T04:28:31;3.07;;;2.87;;
6878;SDS011;3478;51.462;7.338;2023-06-14T04:33:37;15.07;;;3.70;;
6878;SDS011;3478;51.462;7.338;2023-06-14T04:38:43;3.40;;;3.07;;
6878;SDS011;3478;51.462;7.338;2023-06-14T04:43:47;4.10;;;3.30;;
6878;SDS011;3478;51.462;7.338;2023-06-14T04:48:49;3.57;;;3.10;;
6878;SDS011;3478;51.462;7.338;2023-06-14T04:53:52;3.90;;;3.37;;
6878;SDS011;3478;51.462;7.338;2023-06-14T04:58:58;3.50;;;2.53;;
6878;SDS011;3478;51.462;7.338;2023-06-14T05:04:00;5.83;;;2.90;;
6878;SDS011;3478;51.462;7.338;2023-06-14T05:09:02;3.67;;;3.37;;
6878;SDS011;3478;51.462;7.338;2023-06-14T05:14:05;5.43;;;3.43;;
6878;SDS011;3478;51.462;7.338;2023-06-14T05:19:07;4.93;;;3.60;;
6878;SDS011;3478;51.462;7.338;2023-06-14T05:24:10;6.10;;;3.20;;
6878;SDS011;3478;51.462;7.338;2023-06-14T05:29:13;3.37;;;3.10;;
6878;SDS011;3478;51.462;7.338;2023-06-14T05:34:15;4.87;;;3.83;;
6878;SDS011;3478;51.462;7.338;2023-06-14T05:39:17;3.20;;;2.90;;
6878;SDS011;3478;51.462;7.338;2023-06-14T05:44:20;3.93;;;3.60;;
6878;SDS011;3478;51.462;7.338;2023-06-14T05:49:22;3.03;;;2.83;;
6878;SDS011;3478;51.462;7.338;2023-06-14T05:54:24;2.90;;;2.70;;
6878;SDS011;3478;51.462;7.338;2023-06-14T05:59:28;3.07;;;2.37;;
6878;SDS011;3478;51.462;7.338;2023-06-14T06:04:30;2.80;;;2.60;;
6878;SDS011;3478;51.462;7.338;2023-06-14T06:09:32;6.87;;;2.70;;
6878;SDS011;3478;51.462;7.338;2023-06-14T06:14:35;2.63;;;2.43;;
6878;SDS011;3478;51.462;7.338;2023-06-14T06:19:37;3.97;;;2.10;;
6878;SDS011;3478;51.462;7.338;2023-06-14T06:24:40;8.50;;;2.20;;
6878;SDS011;3478;51.462;7.338;2023-06-14T06:29:43;2.80;;;2.50;;
6878;SDS011;3478;51.462;7.338;2023-06-14T06:34:45;4.50;;;1.43;;
6878;SDS011;3478;51.462;7.338;2023-06-14T06:39:47;1.77;;;1.47;;
6878;SDS011;3478;51.462;7.338;2023-06-14T06:44:50;2.10;;;2.00;;
6878;SDS011;3478;51.462;7.338;2023-06-14T06:49:52;2.67;;;1.93;;
6878;SDS011;3478;51.462;7.338;2023-06-14T06:54:54;1.80;;;1.70;;
6878;SDS011;3478;51.462;7.338;2023-06-14T06:59:58;1.90;;;1.80;;
6878;SDS011;3478;51.462;7.338;2023-06-14T07:05:00;3.57;;;2.43;;
6878;SDS011;3478;51.462;7.338;2023-06-14T07:10:02;2.63;;;2.20;;
6878;SDS011;3478;51.462;7.338;2023-06-14T07:15:07;3.30;;;1.43;;
6878;SDS011;3478;51.462;7.338;2023-06-14T07:20:10;1.73;;;1.50;;
6878;SDS011;3478;51.462;7.338;2023-06-14T07:25:13;1.90;;;1.80;;
6878;SDS011;3478;51.462;7.338;2023-06-14T07:30:17;2.20;;;2.10;;
6878;SDS011;3478;51.462;7.338;2023-06-14T07:35:19;1.50;;;1.37;;
6878;SDS011;3478;51.462;7.338;2023-06-14T07:40:21;1.70;;;1.60;;
6878;SDS011;3478;51.462;7.338;2023-06-14T07:45:25;2.80;;;2.00;;
6878;SDS011;3478;51.462;7.338;2023-06-14T07:50:27;3.63;;;1.70;;
6878;SDS011;3478;51.462;7.338;2023-06-14T07:55:28;1.60;;;1.50;;
6878;SDS011;3478;51.462;7.338;2023-06-14T08:00:32;2.60;;;1.30;;
6878;SDS011;3478;51.462;7.338;2023-06-14T08:05:34;3.60;;;1.70;;
6878;SDS011;3478;51.462;7.338;2023-06-14T08:10:36;1.70;;;1.50;;
6878;SDS011;3478;51.462;7.338;2023-06-14T08:15:39;3.37;;;2.00;;
6878;SDS011;3478;51.462;7.338;2023-06-14T08:20:41;4.03;;;1.00;;
6878;SDS011;3478;51.462;7.338;2023-06-14T08:25:43;1.57;;;1.43;;
6878;SDS011;3478;51.462;7.338;2023-06-14T08:30:47;1.73;;;1.37;;
6878;SDS011;3478;51.462;7.338;2023-06-14T08:35:49;1.83;;;1.47;;
6878;SDS011;3478;51.462;7.338;2023-06-14T08:40:51;2.57;;;0.90;;
6878;SDS011;3478;51.462;7.338;2023-06-14T08:46:00;4.40;;;0.97;;
6878;SDS011;3478;51.462;7.338;2023-06-14T08:51:03;0.90;;;0.80;;
6878;SDS011;3478;51.462;7.338;2023-06-14T08:56:06;2.27;;;1.00;;
6878;SDS011;3478;51.462;7.338;2023-06-14T09:01:14;1.87;;;0.80;;
6878;SDS011;3478;51.462;7.338;2023-06-14T09:06:17;2.60;;;0.60;;
6878;SDS011;3478;51.462;7.338;2023-06-14T09:11:23;0.70;;;0.70;;
6878;SDS011;3478;51.462;7.338;2023-06-14T09:16:27;3.93;;;1.40;;
6878;SDS011;3478;51.462;7.338;2023-06-14T09:21:35;2.20;;;0.67;;
6878;SDS011;3478;51.462;7.338;2023-06-14T09:26:37;0.87;;;0.60;;
6878;SDS011;3478;51.462;7.338;2023-06-14T09:31:42;1.23;;;0.50;;
6878;SDS011;3478;51.462;7.338;2023-06-14T09:36:44;1.73;;;0.50;;
6878;SDS011;3478;51.462;7.338;2023-06-14T09:41:46;2.57;;;1.00;;
6878;SDS011;3478;51.462;7.338;2023-06-14T09:46:50;1.40;;;0.57;;
6878;SDS011;3478;51.462;7.338;2023-06-14T09:51:52;1.00;;;0.90;;
6878;SDS011;3478;51.462;7.338;2023-06-14T09:56:55;2.10;;;0.60;;
6878;SDS011;3478;51.462;7.338;2023-06-14T10:01:59;2.83;;;0.70;;
6878;SDS011;3478;51.462;7.338;2023-06-14T10:07:04;2.17;;;0.90;;
6878;SDS011;3478;51.462;7.338;2023-06-14T10:12:07;4.50;;;1.17;;
6878;SDS011;3478;51.462;7.338;2023-06-14T10:17:12;1.20;;;0.90;;
6878;SDS011;3478;51.462;7.338;2023-06-14T10:22:22;2.20;;;0.70;;
6878;SDS011;3478;51.462;7.338;2023-06-14T10:27:30;3.73;;;0.60;;
6878;SDS011;3478;51.462;7.338;2023-06-14T10:32:35;1.10;;;0.57;;
6878;SDS011;3478;51.462;7.338;2023-06-14T10:38:08;3.07;;;0.60;;
6878;SDS011;3478;51.462;7.338;2023-06-14T10:43:23;0.87;;;0.73;;
6878;SDS011;3478;51.462;7.338;2023-06-14T10:48:30;2.23;;;0.50;;
6878;SDS011;3478;51.462;7.338;2023-06-14T10:53:38;1.30;;;0.43;;
6878;SDS011;3478;51.462;7.338;2023-06-14T10:58:41;2.63;;;0.90;;
6878;SDS011;3478;51.462;7.338;2023-06-14T11:03:47;3.07;;;0.50;;
6878;SDS011;3478;51.462;7.338;2023-06-14T11:14:32;2.53;;;0.60;;
6878;SDS011;3478;51.462;7.338;2023-06-14T11:19:35;1.57;;;0.50;;
6878;SDS011;3478;51.462;7.338;2023-06-14T11:24:37;3.23;;;0.77;;
6878;SDS011;3478;51.462;7.338;2023-06-14T11:29:47;1.03;;;0.80;;
6878;SDS011;3478;51.462;7.338;2023-06-14T11:34:51;0.80;;;0.80;;
6878;SDS011;3478;51.462;7.338;2023-06-14T11:39:55;1.30;;;1.20;;
6878;SDS011;3478;51.462;7.338;2023-06-14T11:44:57;1.20;;;1.10;;
6878;SDS011;3478;51.462;7.338;2023-06-14T11:50:01;2.10;;;1.03;;
6878;SDS011;3478;51.462;7.338;2023-06-14T11:55:04;2.57;;;0.90;;
6878;SDS011;3478;51.462;7.338;2023-06-14T12:00:07;1.30;;;1.20;;
6878;SDS011;3478;51.462;7.338;2023-06-14T12:05:13;1.50;;;1.40;;
6878;SDS011;3478;51.462;7.338;2023-06-14T12:10:16;1.60;;;1.23;;
6878;SDS011;3478;51.462;7.338;2023-06-14T12:15:18;2.30;;;1.10;;
6878;SDS011;3478;51.462;7.338;2023-06-14T12:20:21;2.20;;;1.27;;
6878;SDS011;3478;51.462;7.338;2023-06-14T12:25:29;1.30;;;0.93;;
6878;SDS011;3478;51.462;7.338;2023-06-14T12:30:32;2.00;;;0.97;;
6878;SDS011;3478;51.462;7.338;2023-06-14T12:35:37;1.10;;;1.00;;
6878;SDS011;3478;51.462;7.338;2023-06-14T12:40:38;2.20;;;1.00;;
6878;SDS011;3478;51.462;7.338;2023-06-14T12:45:41;1.00;;;0.73;;
6878;SDS011;3478;51.462;7.338;2023-06-14T12:50:45;1.50;;;1.40;;
6878;SDS011;3478;51.462;7.338;2023-06-14T12:55:47;0.97;;;0.90;;
6878;SDS011;3478;51.462;7.338;2023-06-14T13:00:49;3.90;;;1.20;;
6878;SDS011;3478;51.462;7.338;2023-06-14T13:05:53;4.50;;;0.90;;
6878;SDS011;3478;51.462;7.338;2023-06-14T13:10:55;1.17;;;1.07;;
6878;SDS011;3478;51.462;7.338;2023-06-14T13:15:57;1.17;;;0.90;;
6878;SDS011;3478;51.462;7.338;2023-06-14T13:21:00;2.10;;;1.00;;
6878;SDS011;3478;51.462;7.338;2023-06-14T13:26:02;1.20;;;1.10;;
6878;SDS011;3478;51.462;7.338;2023-06-14T13:31:04;1.57;;;0.93;;
6878;SDS011;3478;51.462;7.338;2023-06-14T13:36:07;0.90;;;0.90;;
6878;SDS011;3478;51.462;7.338;2023-06-14T13:41:10;3.07;;;1.30;;
6878;SDS011;3478;51.462;7.338;2023-06-14T13:46:12;4.13;;;0.90;;
6878;SDS011;3478;51.462;7.338;2023-06-14T13:51:15;1.70;;;0.80;;
6878;SDS011;3478;51.462;7.338;2023-06-14T13:56:19;2.20;;;1.50;;
6878;SDS011;3478;51.462;7.338;2023-06-14T14:01:22;1.63;;;1.10;;
6878;SDS011;3478;51.462;7.338;2023-06-14T14:06:27;4.33;;;1.00;;
6878;SDS011;3478;51.462;7.338;2023-06-14T14:11:29;1.00;;;0.90;;
6878;SDS011;3478;51.462;7.338;2023-06-14T14:16:32;1.90;;;1.20;;
6878;SDS011;3478;51.462;7.338;2023-06-14T14:21:36;1.30;;;1.20;;
6878;SDS011;3478;51.462;7.338;2023-06-14T14:26:38;4.33;;;1.27;;
6878;SDS011;3478;51.462;7.338;2023-06-14T14:31:42;1.30;;;1.20;;
6878;SDS011;3478;51.462;7.338;2023-06-14T14:36:46;2.70;;;1.93;;
6878;SDS011;3478;51.462;7.338;2023-06-14T14:41:48;1.47;;;1.23;;
6878;SDS011;3478;51.462;7.338;2023-06-14T14:46:52;1.47;;;1.37;;
6878;SDS011;3478;51.462;7.338;2023-06-14T14:51:56;2.40;;;1.20;;
6878;SDS011;3478;51.462;7.338;2023-06-14T14:56:58;2.30;;;1.30;;
6878;SDS011;3478;51.462;7.338;2023-06-14T15:01:59;1.87;;;1.77;;
6878;SDS011;3478;51.462;7.338;2023-06-14T15:07:03;1.70;;;1.57;;
6878;SDS011;3478;51.462;7.338;2023-06-14T15:12:08;2.07;;;1.50;;
6878;SDS011;3478;51.462;7.338;2023-06-14T15:17:11;1.37;;;1.27;;
6878;SDS011;3478;51.462;7.338;2023-06-14T15:22:15;1.77;;;1.30;;
6878;SDS011;3478;51.462;7.338;2023-06-14T15:27:17;2.40;;;0.87;;
6878;SDS011;3478;51.462;7.338;2023-06-14T15:32:19;1.40;;;1.30;;
6878;SDS011;3478;51.462;7.338;2023-06-14T15:37:23;0.80;;;0.80;;
6878;SDS011;3478;51.462;7.338;2023-06-14T15:42:25;3.57;;;1.13;;
6878;SDS011;3478;51.462;7.338;2023-06-14T15:47:27;1.20;;;1.10;;
6878;SDS011;3478;51.462;7.338;2023-06-14T15:52:30;2.17;;;1.30;;
6878;SDS011;3478;51.462;7.338;2023-06-14T15:57:32;1.33;;;1.10;;
6878;SDS011;3478;51.462;7.338;2023-06-14T16:02:34;1.40;;;1.30;;
6878;SDS011;3478;51.462;7.338;2023-06-14T16:07:38;2.90;;;1.30;;
6878;SDS011;3478;51.462;7.338;2023-06-14T16:12:40;2.00;;;1.43;;
6878;SDS011;3478;51.462;7.338;2023-06-14T16:17:42;1.47;;;1.37;;
6878;SDS011;3478;51.462;7.338;2023-06-14T16:22:45;3.43;;;1.20;;
6878;SDS011;3478;51.462;7.338;2023-06-14T16:27:47;1.37;;;1.27;;
6878;SDS011;3478;51.462;7.338;2023-06-14T16:32:50;1.47;;;1.00;;
6878;SDS011;3478;51.462;7.338;2023-06-14T16:37:53;1.40;;;1.30;;
6878;SDS011;3478;51.462;7.338;2023-06-14T16:42:55;2.27;;;1.13;;
6878;SDS011;3478;51.462;7.338;2023-06-14T16:47:57;1.50;;;1.00;;
6878;SDS011;3478;51.462;7.338;2023-06-14T16:53:00;1.33;;;1.20;;
6878;SDS011;3478;51.462;7.338;2023-06-14T16:58:02;1.80;;;1.70;;
6878;SDS011;3478;51.462;7.338;2023-06-14T17:03:04;1.40;;;1.30;;
6878;SDS011;3478;51.462;7.338;2023-06-14T17:08:08;2.70;;;1.20;;
6878;SDS011;3478;51.462;7.338;2023-06-14T17:13:10;2.40;;;1.20;;
6878;SDS011;3478;51.462;7.338;2023-06-14T17:18:12;1.57;;;1.47;;
6878;SDS011;3478;51.462;7.338;2023-06-14T17:23:15;1.30;;;1.20;;
6878;SDS011;3478;51.462;7.338;2023-06-14T17:28:19;1.10;;;1.00;;
6878;SDS011;3478;51.462;7.338;2023-06-14T17:33:21;0.83;;;0.70;;
6878;SDS011;3478;51.462;7.338;2023-06-14T17:38:25;2.00;;;1.17;;
6878;SDS011;3478;51.462;7.338;2023-06-14T17:43:29;1.43;;;1.33;;
6878;SDS011;3478;51.462;7.338;2023-06-14T17:48:32;1.00;;;0.90;;
6878;SDS011;3478;51.462;7.338;2023-06-14T17:53:37;2.60;;;1.60;;
6878;SDS011;3478;51.462;7.338;2023-06-14T17:58:39;1.20;;;1.00;;
6878;SDS011;3478;51.462;7.338;2023-06-14T18:03:41;1.40;;;1.30;;
6878;SDS011;3478;51.462;7.338;2023-06-14T18:08:45;1.90;;;0.90;;
6878;SDS011;3478;51.462;7.338;2023-06-14T18:13:48;1.50;;;1.40;;
6878;SDS011;3478;51.462;7.338;2023-06-14T18:18:53;1.10;;;0.90;;
6878;SDS011;3478;51.462;7.338;2023-06-14T18:23:56;2.27;;;1.30;;
6878;SDS011;3478;51.462;7.338;2023-06-14T18:28:58;2.50;;;1.03;;
6878;SDS011;3478;51.462;7.338;2023-06-14T18:34:00;1.47;;;1.20;;
6878;SDS011;3478;51.462;7.338;2023-06-14T18:39:04;1.80;;;1.47;;
6878;SDS011;3478;51.462;7.338;2023-06-14T18:44:06;2.77;;;0.97;;
6878;SDS011;3478;51.462;7.338;2023-06-14T18:49:08;3.43;;;0.93;;
6878;SDS011;3478;51.462;7.338;2023-06-14T18:54:12;0.93;;;0.80;;
6878;SDS011;3478;51.462;7.338;2023-06-14T18:59:14;1.40;;;1.30;;
6878;SDS011;3478;51.462;7.338;2023-06-14T19:04:16;1.20;;;1.10;;
6878;SDS011;3478;51.462;7.338;2023-06-14T19:09:20;2.10;;;1.00;;
6878;SDS011;3478;51.462;7.338;2023-06-14T19:14:23;4.63;;;1.50;;
6878;SDS011;3478;51.462;7.338;2023-06-14T19:19:25;0.87;;;0.87;;
6878;SDS011;3478;51.462;7.338;2023-06-14T19:24:36;1.40;;;1.10;;
6878;SDS011;3478;51.462;7.338;2023-06-14T19:29:39;1.47;;;1.10;;
6878;SDS011;3478;51.462;7.338;2023-06-14T19:34:41;1.67;;;1.27;;
6878;SDS011;3478;51.462;7.338;2023-06-14T19:39:50;1.20;;;0.90;;
6878;SDS011;3478;51.462;7.338;2023-06-14T19:44:52;1.07;;;0.97;;
6878;SDS011;3478;51.462;7.338;2023-06-14T19:49:58;1.83;;;0.70;;
6878;SDS011;3478;51.462;7.338;2023-06-14T19:55:02;1.80;;;1.70;;
6878;SDS011;3478;51.462;7.338;2023-06-14T20:00:05;1.77;;;1.23;;
6878;SDS011;3478;51.462;7.338;2023-06-14T20:05:08;2.30;;;1.33;;
6878;SDS011;3478;51.462;7.338;2023-06-14T20:10:12;0.80;;;0.80;;
6878;SDS011;3478;51.462;7.338;2023-06-14T20:15:14;1.83;;;1.00;;
6878;SDS011;3478;51.462;7.338;2023-06-14T20:20:16;1.57;;;1.20;;
6878;SDS011;3478;51.462;7.338;2023-06-14T20:25:19;1.50;;;1.40;;
6878;SDS011;3478;51.462;7.338;2023-06-14T20:30:21;1.73;;;1.20;;
6878;SDS011;3478;51.462;7.338;2023-06-14T20:35:23;1.37;;;1.27;;
6878;SDS011;3478;51.462;7.338;2023-06-14T20:40:27;3.27;;;1.20;;
6878;SDS011;3478;51.462;7.338;2023-06-14T20:45:29;4.03;;;0.83;;
6878;SDS011;3478;51.462;7.338;2023-06-14T20:50:31;2.90;;;1.40;;
6878;SDS011;3478;51.462;7.338;2023-06-14T20:55:35;2.90;;;1.23;;
6878;SDS011;3478;51.462;7.338;2023-06-14T21:00:36;2.33;;;1.77;;
6878;SDS011;3478;51.462;7.338;2023-06-14T21:05:39;1.20;;;1.10;;
6878;SDS011;3478;51.462;7.338;2023-06-14T21:10:43;1.60;;;1.50;;
6878;SDS011;3478;51.462;7.338;2023-06-14T21:15:46;2.30;;;1.27;;
6878;SDS011;3478;51.462;7.338;2023-06-14T21:20:48;1.63;;;1.30;;
6878;SDS011;3478;51.462;7.338;2023-06-14T21:25:53;1.60;;;1.47;;
6878;SDS011;3478;51.462;7.338;2023-06-14T21:30:58;4.30;;;1.57;;
6878;SDS011;3478;51.462;7.338;2023-06-14T21:36:00;2.50;;;1.23;;
6878;SDS011;3478;51.462;7.338;2023-06-14T21:41:03;1.53;;;1.33;;
6878;SDS011;3478;51.462;7.338;2023-06-14T21:46:05;2.07;;;1.30;;
6878;SDS011;3478;51.462;7.338;2023-06-14T21:51:07;3.00;;;1.53;;
6878;SDS011;3478;51.462;7.338;2023-06-14T21:56:10;1.37;;;1.27;;
6878;SDS011;3478;51.462;7.338;2023-06-14T22:01:12;1.60;;;1.50;;
6878;SDS011;3478;51.462;7.338;2023-06-14T22:06:14;1.50;;;1.40;;
6878;SDS011;3478;51.462;7.338;2023-06-14T22:11:17;1.73;;;1.30;;
6878;SDS011;3478;51.462;7.338;2023-06-14T22:16:20;5.83;;;1.27;;
6878;SDS011;3478;51.462;7.338;2023-06-14T22:21:25;2.43;;;1.63;;
6878;SDS011;3478;51.462;7.338;2023-06-14T22:26:30;2.13;;;2.03;;
6878;SDS011;3478;51.462;7.338;2023-06-14T22:31:33;1.67;;;1.57;;
6878;SDS011;3478;51.462;7.338;2023-06-14T22:36:36;2.10;;;2.00;;
6878;SDS011;3478;51.462;7.338;2023-06-14T22:41:42;3.93;;;2.10;;
6878;SDS011;3478;51.462;7.338;2023-06-14T22:46:47;2.20;;;2.00;;
6878;SDS011;3478;51.462;7.338;2023-06-14T22:51:49;2.23;;;2.00;;
6878;SDS011;3478;51.462;7.338;2023-06-14T22:56:56;2.50;;;2.30;;
6878;SDS011;3478;51.462;7.338;2023-06-14T23:01:59;1.90;;;1.80;;
6878;SDS011;3478;51.462;7.338;2023-06-14T23:07:01;2.83;;;2.20;;
6878;SDS011;3478;51.462;7.338;2023-06-14T23:12:05;3.50;;;2.50;;
6878;SDS011;3478;51.462;7.338;2023-06-14T23:17:08;2.37;;;2.27;;
6878;SDS011;3478;51.462;7.338;2023-06-14T23:22:10;3.00;;;1.93;;
6878;SDS011;3478;51.462;7.338;2023-06-14T23:27:15;3.83;;;2.00;;
6878;SDS011;3478;51.462;7.338;2023-06-14T23:32:17;2.60;;;2.40;;
6878;SDS011;3478;51.462;7.338;2023-06-14T23:37:19;2.63;;;2.43;;
6878;SDS011;3478;51.462;7.338;2023-06-14T23:42:22;4.43;;;2.70;;
6878;SDS011;3478;51.462;7.338;2023-06-14T23:47:29;4.07;;;1.60;;
6878;SDS011;3478;51.462;7.338;2023-06-14T23:52:31;2.50;;;2.40;;
6878;SDS011;3478;51.462;7.338;2023-06-14T23:57:35;3.30;;;2.60;;
